createdAt,value
2019-03-12T00:01:11.000Z,19.77
2019-03-12T00:03:47.542Z,19.40
2019-03-12T00:06:11.731Z,18.00
2019-03-12T00:08:35.081Z,17.32
2019-03-12T00:10:59.106Z,16.82
2019-03-12T00:13:24.592Z,16.15
2019-03-12T00:15:48.665Z,14.68
2019-03-12T00:18:12.662Z,16.37
2019-03-12T00:20:37.028Z,17.15
2019-03-12T00:23:00.980Z,16.97
2019-03-12T00:25:25.077Z,16.42
2019-03-12T00:27:49.192Z,16.23
2019-03-12T00:30:12.407Z,17.15
2019-03-12T00:32:36.435Z,16.57
2019-03-12T00:35:00.556Z,19.32
2019-03-12T00:37:24.604Z,18.87
2019-03-12T00:39:48.545Z,19.95
2019-03-12T00:42:12.477Z,21.17
2019-03-12T00:44:35.933Z,22.58
2019-03-12T00:46:59.883Z,22.75
2019-03-12T00:49:24.060Z,21.80
2019-03-12T00:51:48.001Z,23.90
2019-03-12T00:54:12.004Z,24.18
2019-03-12T00:56:35.850Z,25.80
2019-03-12T00:59:01.241Z,24.67
2019-03-12T01:01:25.592Z,23.60
2019-03-12T01:03:49.864Z,26.15
2019-03-12T01:06:13.744Z,26.42
2019-03-12T01:08:36.669Z,23.62
2019-03-12T01:11:01.204Z,25.43
2019-03-12T01:13:25.277Z,26.48
2019-03-12T01:15:52.994Z,24.87
2019-03-12T01:18:17.154Z,28.00
2019-03-12T01:20:40.889Z,23.77
2019-03-12T01:23:04.888Z,25.23
2019-03-12T01:25:28.337Z,27.22
2019-03-12T01:27:52.194Z,25.52
2019-03-12T01:30:17.480Z,24.47
2019-03-12T01:32:41.577Z,25.37
2019-03-12T01:35:07.268Z,25.08
2019-03-12T01:37:31.319Z,28.57
2019-03-12T01:39:54.700Z,26.10
2019-03-12T01:42:18.135Z,27.70
2019-03-12T01:44:41.308Z,30.15
2019-03-12T01:47:05.303Z,27.25
2019-03-12T01:49:29.583Z,27.10
2019-03-12T01:51:53.207Z,26.95
2019-03-12T01:54:16.927Z,31.15
2019-03-12T01:56:41.103Z,29.57
2019-03-12T01:59:04.807Z,29.07
2019-03-12T02:01:28.457Z,27.60
2019-03-12T02:03:52.080Z,29.02
2019-03-12T02:06:16.080Z,31.68
2019-03-12T02:08:39.910Z,30.27
2019-03-12T02:11:03.756Z,32.03
2019-03-12T02:13:27.186Z,28.32
2019-03-12T02:15:51.065Z,27.40
2019-03-12T02:18:14.103Z,25.45
2019-03-12T02:20:38.312Z,19.60
2019-03-12T02:23:02.344Z,22.73
2019-03-12T02:25:25.980Z,22.00
2019-03-12T02:27:49.149Z,22.55
2019-03-12T02:30:18.612Z,22.05
2019-03-12T02:32:44.430Z,20.60
2019-03-12T02:35:07.940Z,20.00
2019-03-12T02:37:31.749Z,21.55
2019-03-12T02:39:55.977Z,21.80
2019-03-12T02:42:19.427Z,19.92
2019-03-12T02:44:42.666Z,20.48
2019-03-12T02:47:06.269Z,18.48
2019-03-12T02:49:30.556Z,19.50
2019-03-12T02:51:53.785Z,18.82
2019-03-12T02:54:17.685Z,20.05
2019-03-12T02:56:41.206Z,19.60
2019-03-12T02:59:04.751Z,21.55
2019-03-12T03:01:28.106Z,22.42
2019-03-12T03:03:52.394Z,17.40
2019-03-12T03:06:18.014Z,19.00
2019-03-12T03:08:41.689Z,20.72
2019-03-12T03:11:05.808Z,19.65
2019-03-12T03:13:30.056Z,20.82
2019-03-12T03:15:53.293Z,17.87
2019-03-12T03:18:17.243Z,17.92
2019-03-12T03:20:41.488Z,17.70
2019-03-12T03:23:04.724Z,19.55
2019-03-12T03:25:28.611Z,20.00
2019-03-12T03:27:52.122Z,19.25
2019-03-12T03:30:23.319Z,19.25
2019-03-12T03:32:47.202Z,18.50
2019-03-12T03:35:10.621Z,17.32
2019-03-12T03:37:34.990Z,18.95
2019-03-12T03:39:59.152Z,18.57
2019-03-12T03:42:22.364Z,18.80
2019-03-12T03:44:45.761Z,20.20
2019-03-12T03:47:09.033Z,17.12
2019-03-12T03:49:32.420Z,19.60
2019-03-12T03:51:55.542Z,18.75
2019-03-12T03:54:18.851Z,19.27
2019-03-12T03:56:42.909Z,18.67
2019-03-12T03:59:06.640Z,16.42
2019-03-12T04:01:29.666Z,18.40
2019-03-12T04:03:53.694Z,23.18
2019-03-12T04:06:18.023Z,29.25
2019-03-12T04:08:41.997Z,23.65
2019-03-12T04:11:06.052Z,25.50
2019-03-12T04:13:29.885Z,21.03
2019-03-12T04:15:53.272Z,20.10
2019-03-12T04:18:17.589Z,20.05
2019-03-12T04:20:40.749Z,18.73
2019-03-12T04:23:04.156Z,18.20
2019-03-12T04:25:28.386Z,17.82
2019-03-12T04:27:51.952Z,26.40
2019-03-12T04:30:16.883Z,25.65
2019-03-12T04:32:40.857Z,27.95
2019-03-12T04:35:07.923Z,26.87
2019-03-12T04:37:31.595Z,28.00
2019-03-12T04:39:55.160Z,25.88
2019-03-12T04:42:18.192Z,26.17
2019-03-12T04:44:41.819Z,30.30
2019-03-12T04:47:05.722Z,26.02
2019-03-12T04:49:29.096Z,38.65
2019-03-12T04:51:53.296Z,36.65
2019-03-12T04:54:17.471Z,30.55
2019-03-12T04:56:43.676Z,28.12
2019-03-12T04:59:07.351Z,34.05
2019-03-12T05:01:31.427Z,34.65
2019-03-12T05:03:55.548Z,37.90
2019-03-12T05:06:20.145Z,37.03
2019-03-12T05:08:44.656Z,34.03
2019-03-12T05:11:08.358Z,41.10
2019-03-12T05:13:32.789Z,41.77
2019-03-12T05:15:56.551Z,42.53
2019-03-12T05:18:21.187Z,41.45
2019-03-12T05:20:45.518Z,46.68
2019-03-12T05:23:09.531Z,48.95
2019-03-12T05:25:33.416Z,71.07
2019-03-12T05:27:57.292Z,50.53
2019-03-12T05:30:21.698Z,39.35
2019-03-12T05:32:44.885Z,58.70
2019-03-12T05:35:08.849Z,57.62
2019-03-12T05:37:32.017Z,74.35
2019-03-12T05:39:56.026Z,85.57
2019-03-12T05:42:20.034Z,112.75
2019-03-12T05:44:44.121Z,101.62
2019-03-12T05:47:08.371Z,113.88
2019-03-12T05:49:32.184Z,110.00
2019-03-12T05:51:56.139Z,77.50
2019-03-12T05:54:20.585Z,64.22
2019-03-12T05:56:44.356Z,31.15
2019-03-12T05:59:08.412Z,31.05
2019-03-12T06:01:32.573Z,40.73
2019-03-12T06:03:57.043Z,31.97
2019-03-12T06:06:21.180Z,43.30
2019-03-12T06:08:45.356Z,31.20
2019-03-12T06:11:09.536Z,33.38
2019-03-12T06:13:32.627Z,36.20
2019-03-12T06:15:57.087Z,38.25
2019-03-12T06:18:20.788Z,32.95
2019-03-12T06:20:45.753Z,39.70
2019-03-12T06:23:09.784Z,39.63
2019-03-12T06:25:34.147Z,35.80
2019-03-12T06:27:58.393Z,35.58
2019-03-12T06:30:25.585Z,37.73
2019-03-12T06:32:48.981Z,31.85
2019-03-12T06:35:14.033Z,36.13
2019-03-12T06:37:39.952Z,40.45
2019-03-12T06:42:47.677Z,32.78
2019-03-12T06:45:22.032Z,34.30
2019-03-12T06:47:49.616Z,45.35
2019-03-12T06:50:20.852Z,40.15
2019-03-12T06:53:02.724Z,38.15
2019-03-12T06:55:41.272Z,32.80
2019-03-12T06:58:18.892Z,30.20
2019-03-12T07:00:44.183Z,25.52
2019-03-12T07:03:15.415Z,31.55
2019-03-12T07:05:46.836Z,28.92
2019-03-12T07:08:14.601Z,32.08
2019-03-12T07:10:45.839Z,28.27
2019-03-12T07:13:13.680Z,27.82
2019-03-12T07:15:38.827Z,28.85
2019-03-12T07:18:09.737Z,26.35
2019-03-12T07:20:37.437Z,26.10
2019-03-12T07:23:02.631Z,30.82
2019-03-12T07:25:36.808Z,31.25
2019-03-12T07:28:07.907Z,30.43
2019-03-12T07:30:32.835Z,33.23
2019-03-12T07:33:06.942Z,52.05
2019-03-12T07:35:37.922Z,56.40
2019-03-12T07:38:19.228Z,33.58
2019-03-12T07:41:01.101Z,41.55
2019-03-12T07:43:38.964Z,34.95
2019-03-12T07:46:04.399Z,42.70
2019-03-12T07:48:33.596Z,25.12
2019-03-12T07:51:06.050Z,30.05
2019-03-12T07:53:32.335Z,45.58
2019-03-12T07:56:11.168Z,32.83
2019-03-12T07:58:48.874Z,41.92
2019-03-12T08:01:13.947Z,32.93
2019-03-12T08:06:39.296Z,39.25
2019-03-12T08:09:07.208Z,16.15
2019-03-12T08:11:52.668Z,15.05
2019-03-12T08:14:17.480Z,14.70
2019-03-12T08:16:49.268Z,21.93
2019-03-12T08:19:14.146Z,11.65
2019-03-12T08:21:39.229Z,12.73
2019-03-12T08:24:07.568Z,14.07
2019-03-12T08:26:32.661Z,13.70
2019-03-12T08:29:13.981Z,13.58
2019-03-12T08:31:55.527Z,11.30
2019-03-12T08:34:23.367Z,13.83
2019-03-12T08:36:51.351Z,12.88
2019-03-12T08:39:22.068Z,9.58
2019-03-12T08:41:47.320Z,9.65
2019-03-12T08:44:14.951Z,11.60
2019-03-12T08:46:46.332Z,7.25
2019-03-12T08:49:23.442Z,13.85
2019-03-12T08:51:53.806Z,13.70
2019-03-12T08:54:22.665Z,18.95
2019-03-12T08:56:50.625Z,10.23
2019-03-12T08:59:31.672Z,8.03
2019-03-12T09:02:02.410Z,13.10
2019-03-12T09:04:30.159Z,13.83
2019-03-12T09:06:55.109Z,18.30
2019-03-12T09:11:55.675Z,20.35
2019-03-12T09:14:20.489Z,14.23
2019-03-12T09:16:57.260Z,14.20
2019-03-12T09:19:39.076Z,22.42
2019-03-12T09:22:10.977Z,11.93
2019-03-12T09:24:41.794Z,10.53
2019-03-12T09:27:18.859Z,13.13
2019-03-12T09:29:44.372Z,14.70
2019-03-12T09:32:09.092Z,15.25
2019-03-12T09:34:51.101Z,18.37
2019-03-12T09:37:23.128Z,15.58
2019-03-12T09:39:48.332Z,12.20
2019-03-12T09:42:13.928Z,15.58
2019-03-12T09:44:55.840Z,13.85
2019-03-12T09:47:36.715Z,15.18
2019-03-12T09:50:05.056Z,11.55
2019-03-12T09:52:42.188Z,11.28
2019-03-12T09:55:07.548Z,14.80
2019-03-12T09:57:32.536Z,12.85
2019-03-12T10:00:15.723Z,12.80
2019-03-12T10:02:32.169Z,12.78
2019-03-12T10:05:04.889Z,11.03
2019-03-12T10:07:47.604Z,12.20
2019-03-12T10:10:25.439Z,13.35
2019-03-12T10:13:06.036Z,11.85
2019-03-12T10:15:37.253Z,11.88
2019-03-12T10:18:17.063Z,12.93
2019-03-12T10:20:48.288Z,12.85
2019-03-12T10:23:16.155Z,13.10
2019-03-12T10:25:44.284Z,12.93
2019-03-12T10:28:14.896Z,13.22
2019-03-12T10:30:46.034Z,15.60
2019-03-12T10:33:20.067Z,11.60
2019-03-12T10:36:00.359Z,10.75
2019-03-12T10:39:06.801Z,9.88
2019-03-12T10:41:36.199Z,11.57
2019-03-12T10:44:01.418Z,8.80
2019-03-12T10:46:33.413Z,31.25
2019-03-12T10:48:57.196Z,17.82
2019-03-12T10:51:20.577Z,12.45
2019-03-12T10:53:44.310Z,10.70
2019-03-12T10:56:08.759Z,8.78
2019-03-12T10:58:32.637Z,20.53
2019-03-12T11:00:55.658Z,14.18
2019-03-12T11:03:18.659Z,10.90
2019-03-12T11:05:46.311Z,12.07
2019-03-12T11:08:07.808Z,13.72
2019-03-12T11:10:32.053Z,12.45
2019-03-12T11:12:55.238Z,12.00
2019-03-12T11:15:19.111Z,8.63
2019-03-12T11:17:49.428Z,9.73
2019-03-12T11:22:35.362Z,10.60
2019-03-12T11:24:58.547Z,8.45
2019-03-12T11:27:22.776Z,10.38
2019-03-12T11:29:45.993Z,9.18
2019-03-12T11:32:09.966Z,14.70
2019-03-12T11:34:33.863Z,13.87
2019-03-12T11:36:58.120Z,10.48
2019-03-12T11:39:22.441Z,16.77
2019-03-12T11:41:45.737Z,14.80
2019-03-12T11:44:09.434Z,19.25
2019-03-12T11:46:41.604Z,9.25
2019-03-12T11:48:57.853Z,16.48
2019-03-12T11:51:24.908Z,9.28
2019-03-12T11:53:48.574Z,10.60
2019-03-12T11:56:12.675Z,9.03
2019-03-12T11:58:36.444Z,10.55
2019-03-12T12:01:02.013Z,12.35
2019-03-12T12:03:25.314Z,7.42
2019-03-12T12:05:49.482Z,10.35
2019-03-12T12:08:12.958Z,9.70
2019-03-12T12:10:36.838Z,8.00
2019-03-12T12:13:00.943Z,7.35
2019-03-12T12:15:24.519Z,6.67
2019-03-12T12:17:49.972Z,38.87
2019-03-12T12:20:14.500Z,17.77
2019-03-12T12:22:37.872Z,156.93
2019-03-12T12:25:01.899Z,43.58
2019-03-12T12:27:26.183Z,16.07
2019-03-12T12:29:51.190Z,8.95
2019-03-12T12:32:15.505Z,10.40
2019-03-12T12:34:39.684Z,29.50
2019-03-12T12:37:04.244Z,18.10
2019-03-12T12:39:27.700Z,8.88
2019-03-12T12:41:50.939Z,6.28
2019-03-12T12:44:15.070Z,16.07
2019-03-12T12:46:39.275Z,8.10
2019-03-12T12:49:04.205Z,7.42
2019-03-12T12:51:28.177Z,50.35
2019-03-12T12:53:51.339Z,20.80
2019-03-12T12:56:15.451Z,22.15
2019-03-12T12:58:39.484Z,11.08
2019-03-12T13:01:02.643Z,13.25
2019-03-12T13:03:25.977Z,10.90
2019-03-12T13:05:50.180Z,19.70
2019-03-12T13:08:14.462Z,9.38
2019-03-12T13:10:39.409Z,10.95
2019-03-12T13:13:02.806Z,9.73
2019-03-12T13:15:26.614Z,7.90
2019-03-12T13:17:49.900Z,11.05
2019-03-12T13:20:13.280Z,9.18
2019-03-12T13:22:37.568Z,9.20
2019-03-12T13:25:01.786Z,9.55
2019-03-12T13:27:26.391Z,10.00
2019-03-12T13:29:49.808Z,9.75
2019-03-12T13:32:14.191Z,7.92
2019-03-12T13:34:38.260Z,6.05
2019-03-12T13:37:02.353Z,7.67
2019-03-12T13:39:26.380Z,13.20
2019-03-12T13:41:49.785Z,10.25
2019-03-12T13:44:14.068Z,11.80
2019-03-12T13:46:38.189Z,10.60
2019-03-12T13:49:02.424Z,12.70
2019-03-12T13:51:26.140Z,15.70
2019-03-12T13:53:49.611Z,15.50
2019-03-12T13:56:14.776Z,13.00
2019-03-12T13:58:38.212Z,11.00
2019-03-12T14:01:01.570Z,11.60
2019-03-12T14:03:26.834Z,7.90
2019-03-12T14:05:51.068Z,14.10
2019-03-12T14:08:14.264Z,14.45
2019-03-12T14:10:39.424Z,18.50
2019-03-12T14:13:03.367Z,14.38
2019-03-12T14:15:36.019Z,11.45
2019-03-12T14:17:59.812Z,12.00
2019-03-12T14:20:40.799Z,15.08
2019-03-12T14:23:03.999Z,90.00
2019-03-12T14:25:27.504Z,12.90
2019-03-12T14:27:51.900Z,9.28
2019-03-12T14:30:16.099Z,9.98
2019-03-12T14:32:40.148Z,23.00
2019-03-12T14:35:05.164Z,9.00
2019-03-12T14:37:29.400Z,9.80
2019-03-12T14:39:52.836Z,8.43
2019-03-12T14:42:17.009Z,32.25
2019-03-12T14:44:41.023Z,28.77
2019-03-12T14:47:06.276Z,8.03
2019-03-12T14:49:30.556Z,7.08
2019-03-12T14:52:00.914Z,7.77
2019-03-12T14:54:26.115Z,12.37
2019-03-12T14:56:50.406Z,14.20
2019-03-12T14:59:14.696Z,12.65
2019-03-12T15:01:38.884Z,12.30
2019-03-12T15:04:02.916Z,31.12
2019-03-12T15:06:27.103Z,16.75
2019-03-12T15:08:51.223Z,24.43
2019-03-12T15:11:15.568Z,29.32
2019-03-12T15:13:39.584Z,18.32
2019-03-12T15:16:03.552Z,18.98
2019-03-12T15:18:27.776Z,19.82
2019-03-12T15:20:50.904Z,23.95
2019-03-12T15:23:14.640Z,26.90
2019-03-12T15:25:38.790Z,29.98
2019-03-12T15:28:02.747Z,21.37
2019-03-12T15:30:28.835Z,13.38
2019-03-12T15:32:52.154Z,26.95
2019-03-12T15:35:16.539Z,16.35
2019-03-12T15:37:40.396Z,15.70
2019-03-12T15:40:05.203Z,22.85
2019-03-12T15:42:30.007Z,29.00
2019-03-12T15:44:54.391Z,24.12
2019-03-12T15:47:18.214Z,22.77
2019-03-12T15:49:42.970Z,28.87
2019-03-12T15:52:07.428Z,32.05
2019-03-12T15:54:31.073Z,25.97
2019-03-12T15:56:55.388Z,19.27
2019-03-12T15:59:18.944Z,24.60
2019-03-12T16:01:42.236Z,56.75
2019-03-12T16:04:05.416Z,39.15
2019-03-12T16:06:28.536Z,41.63
2019-03-12T16:08:52.236Z,60.50
2019-03-12T16:11:16.480Z,156.15
2019-03-12T16:13:40.716Z,40.52
2019-03-12T16:16:04.813Z,41.95
2019-03-12T16:18:29.043Z,23.70
2019-03-12T16:20:52.303Z,24.30
2019-03-12T16:23:16.384Z,28.30
2019-03-12T16:25:40.432Z,20.20
2019-03-12T16:28:04.652Z,21.90
2019-03-12T16:30:28.964Z,25.65
2019-03-12T16:32:53.147Z,46.90
2019-03-12T16:35:17.096Z,53.58
2019-03-12T16:37:40.280Z,44.65
2019-03-12T16:40:18.868Z,42.17
2019-03-12T16:42:42.175Z,41.70
2019-03-12T16:45:11.269Z,50.88
2019-03-12T16:47:35.136Z,55.28
2019-03-12T16:49:58.507Z,63.85
2019-03-12T16:52:21.848Z,61.80
2019-03-12T16:54:45.787Z,57.65
2019-03-12T16:57:09.231Z,107.15
2019-03-12T16:59:32.536Z,82.30
2019-03-12T17:01:56.644Z,88.47
2019-03-12T17:04:20.056Z,89.47
2019-03-12T17:06:43.418Z,172.98
2019-03-12T17:09:09.171Z,184.22
2019-03-12T17:11:34.885Z,201.12
2019-03-12T17:13:59.090Z,156.80
2019-03-12T17:16:23.276Z,157.80
2019-03-12T17:18:46.569Z,119.40
2019-03-12T17:21:10.020Z,107.03
2019-03-12T17:23:33.769Z,62.70
2019-03-12T17:25:58.068Z,62.80
2019-03-12T17:28:21.516Z,77.97
2019-03-12T17:30:45.907Z,53.78
2019-03-12T17:33:09.720Z,50.53
2019-03-12T17:35:37.083Z,42.55
2019-03-12T17:38:00.212Z,42.43
2019-03-12T17:40:24.234Z,83.33
2019-03-12T17:42:48.251Z,112.80
2019-03-12T17:45:12.685Z,50.90
2019-03-12T17:47:36.510Z,53.98
2019-03-12T17:50:00.876Z,41.90
2019-03-12T17:52:24.984Z,34.63
2019-03-12T17:54:48.889Z,41.47
2019-03-12T17:57:13.019Z,38.05
2019-03-12T17:59:36.576Z,38.00
2019-03-12T18:02:00.480Z,35.98
2019-03-12T18:04:25.087Z,35.58
2019-03-12T18:06:59.022Z,37.40
2019-03-12T18:09:30.587Z,49.40
2019-03-12T18:11:55.199Z,63.87
2019-03-12T18:14:27.036Z,73.15
2019-03-12T18:16:56.719Z,65.75
2019-03-12T18:19:24.201Z,64.27
2019-03-12T18:24:34.030Z,75.65
2019-03-12T18:27:00.345Z,80.85
2019-03-12T18:29:24.338Z,107.17
2019-03-12T18:31:48.323Z,103.83
2019-03-12T18:34:11.649Z,82.65
2019-03-12T18:36:35.637Z,83.58
2019-03-12T18:39:03.287Z,104.10
2019-03-12T18:41:26.565Z,109.42
2019-03-12T18:43:50.613Z,100.38
2019-03-12T18:46:14.937Z,80.53
2019-03-12T18:48:38.964Z,103.53
2019-03-12T18:51:02.753Z,86.47
2019-03-12T18:53:27.175Z,143.32
2019-03-12T18:55:57.665Z,126.62
2019-03-12T18:58:21.156Z,116.12
2019-03-12T19:00:48.971Z,122.22
2019-03-12T19:03:14.081Z,144.15
2019-03-12T19:05:38.062Z,141.10
2019-03-12T19:08:02.538Z,111.05
2019-03-12T19:10:26.566Z,70.95
2019-03-12T19:12:51.117Z,59.63
2019-03-12T19:15:15.524Z,52.00
2019-03-12T19:20:02.757Z,40.80
2019-03-12T19:22:26.979Z,40.40
2019-03-12T19:24:51.509Z,44.95
2019-03-12T19:27:15.490Z,101.42
2019-03-12T19:29:40.086Z,43.30
2019-03-12T19:32:18.780Z,40.78
2019-03-12T19:34:42.559Z,50.40
2019-03-12T19:37:08.513Z,53.50
2019-03-12T19:39:32.473Z,68.28
2019-03-12T19:41:57.072Z,58.65
2019-03-12T19:44:21.968Z,50.55
2019-03-12T19:46:47.155Z,55.17
2019-03-12T19:49:10.767Z,55.40
2019-03-12T19:51:34.164Z,59.98
2019-03-12T19:53:58.816Z,51.33
2019-03-12T19:56:23.253Z,63.73
2019-03-12T19:58:47.006Z,53.17
2019-03-12T20:01:10.403Z,57.27
2019-03-12T20:03:33.729Z,49.95
2019-03-12T20:05:57.935Z,47.08
2019-03-12T20:08:21.711Z,40.55
2019-03-12T20:11:07.558Z,44.73
2019-03-12T20:14:03.884Z,41.53
2019-03-12T20:16:52.496Z,29.72
2019-03-12T20:19:55.013Z,25.15
2019-03-12T20:22:41.565Z,27.95
2019-03-12T20:25:31.038Z,28.27
2019-03-12T20:28:07.910Z,29.72
2019-03-12T20:30:40.437Z,23.00
2019-03-12T20:33:28.184Z,32.70
2019-03-12T20:36:08.260Z,32.73
2019-03-12T20:39:11.342Z,34.15
2019-03-12T20:42:13.290Z,38.05
2019-03-12T20:45:00.860Z,38.50
2019-03-12T20:47:39.482Z,34.45
2019-03-12T20:50:22.754Z,30.65
2019-03-12T20:53:16.458Z,36.55
2019-03-12T20:56:12.747Z,39.33
2019-03-12T20:59:11.085Z,27.65
2019-03-12T21:01:58.513Z,36.03
2019-03-12T21:04:42.546Z,36.68
2019-03-12T21:07:43.016Z,36.42
2019-03-12T21:10:33.403Z,34.38
2019-03-12T21:13:25.332Z,38.58
2019-03-12T21:16:18.288Z,38.63
2019-03-12T21:19:20.939Z,33.23
2019-03-12T21:22:13.861Z,27.22
2019-03-12T21:24:51.733Z,23.98
2019-03-12T21:27:48.330Z,22.60
2019-03-12T21:30:11.579Z,24.45
2019-03-12T21:32:35.305Z,10.38
2019-03-12T21:34:59.440Z,29.12
2019-03-12T21:37:23.429Z,26.82
2019-03-12T21:39:55.074Z,30.03
2019-03-12T21:42:15.897Z,27.32
2019-03-12T21:44:45.561Z,30.00
2019-03-12T21:47:09.424Z,40.75
2019-03-12T21:49:33.325Z,34.53
2019-03-12T21:51:57.481Z,40.45
2019-03-12T21:54:21.403Z,32.07
2019-03-12T21:56:45.483Z,36.03
2019-03-12T21:59:09.761Z,34.67
2019-03-12T22:01:33.069Z,44.83
2019-03-12T22:03:56.931Z,39.23
2019-03-12T22:06:21.264Z,46.55
2019-03-12T22:08:44.657Z,26.00
2019-03-12T22:11:08.112Z,30.50
2019-03-12T22:13:31.468Z,35.92
2019-03-12T22:15:55.518Z,51.33
2019-03-12T22:18:20.499Z,29.85
2019-03-12T22:20:44.617Z,31.45
2019-03-12T22:23:15.559Z,39.27
2019-03-12T22:25:38.968Z,31.02
2019-03-12T22:28:03.323Z,31.10
2019-03-12T22:30:28.018Z,24.85
2019-03-12T22:32:51.336Z,20.97
2019-03-12T22:35:15.526Z,25.70
2019-03-12T22:37:39.892Z,21.00
2019-03-12T22:40:05.323Z,21.60
2019-03-12T22:42:29.343Z,27.65
2019-03-12T22:44:53.818Z,34.23
2019-03-12T22:49:40.570Z,34.38
2019-03-12T22:52:04.476Z,34.53
2019-03-12T22:54:29.014Z,25.17
2019-03-12T22:56:52.487Z,26.52
2019-03-12T22:59:17.872Z,26.10
2019-03-12T23:01:59.801Z,22.67
2019-03-12T23:04:41.941Z,30.40
2019-03-12T23:07:24.147Z,30.72
2019-03-12T23:09:50.027Z,31.33
2019-03-12T23:12:25.167Z,31.85
2019-03-12T23:14:51.929Z,27.13
2019-03-12T23:17:22.587Z,30.82
2019-03-12T23:19:47.006Z,31.35
2019-03-12T23:22:12.970Z,30.12
2019-03-12T23:27:25.470Z,26.85
2019-03-12T23:29:59.224Z,29.90
2019-03-12T23:32:24.284Z,30.85
2019-03-12T23:34:50.959Z,30.32
2019-03-12T23:37:17.802Z,35.48
2019-03-12T23:39:45.923Z,33.83
2019-03-12T23:42:18.387Z,26.33
2019-03-12T23:44:44.574Z,20.82
2019-03-12T23:47:09.846Z,22.27
2019-03-12T23:49:33.937Z,22.22
2019-03-12T23:51:58.413Z,23.65
2019-03-12T23:56:47.811Z,20.00
2019-03-12T23:59:14.344Z,18.70
